sensor_id;sensor_type;location;lat;lon;timestamp;P1;durP1;ratioP1;P2;durP2;ratioP2
20525;SDS011;10421;49.142;9.232;2023-11-19T00:00:58;7.20;;;3.67;;
20525;SDS011;10421;49.142;9.232;2023-11-19T00:03:25;7.23;;;3.50;;
20525;SDS011;10421;49.142;9.232;2023-11-19T00:05:52;7.90;;;3.60;;
20525;SDS011;10421;49.142;9.232;2023-11-19T00:08:20;6.30;;;3.13;;
20525;SDS011;10421;49.142;9.232;2023-11-19T00:10:46;12.50;;;4.23;;
20525;SDS011;10421;49.142;9.232;2023-11-19T00:13:13;6.90;;;3.23;;
20525;SDS011;10421;49.142;9.232;2023-11-19T00:15:41;9.73;;;3.97;;
20525;SDS011;10421;49.142;9.232;2023-11-19T00:18:08;10.50;;;3.77;;
20525;SDS011;10421;49.142;9.232;2023-11-19T00:20:34;5.57;;;3.13;;
20525;SDS011;10421;49.142;9.232;2023-11-19T00:23:01;7.27;;;3.47;;
20525;SDS011;10421;49.142;9.232;2023-11-19T00:25:29;7.23;;;2.83;;
20525;SDS011;10421;49.142;9.232;2023-11-19T00:27:56;11.67;;;3.97;;
20525;SDS011;10421;49.142;9.232;2023-11-19T00:30:24;7.50;;;3.80;;
20525;SDS011;10421;49.142;9.232;2023-11-19T00:32:51;6.37;;;3.00;;
20525;SDS011;10421;49.142;9.232;2023-11-19T00:35:18;6.40;;;3.40;;
20525;SDS011;10421;49.142;9.232;2023-11-19T00:37:45;7.77;;;3.63;;
20525;SDS011;10421;49.142;9.232;2023-11-19T00:40:12;7.83;;;3.40;;
20525;SDS011;10421;49.142;9.232;2023-11-19T00:42:42;7.90;;;3.27;;
20525;SDS011;10421;49.142;9.232;2023-11-19T00:45:09;7.37;;;3.20;;
20525;SDS011;10421;49.142;9.232;2023-11-19T00:47:37;6.80;;;3.47;;
20525;SDS011;10421;49.142;9.232;2023-11-19T00:50:05;6.83;;;3.67;;
20525;SDS011;10421;49.142;9.232;2023-11-19T00:52:34;7.23;;;3.70;;
20525;SDS011;10421;49.142;9.232;2023-11-19T00:55:01;11.27;;;3.70;;
20525;SDS011;10421;49.142;9.232;2023-11-19T00:57:29;8.47;;;4.20;;
20525;SDS011;10421;49.142;9.232;2023-11-19T00:59:59;7.03;;;3.93;;
20525;SDS011;10421;49.142;9.232;2023-11-19T01:02:26;7.97;;;4.00;;
20525;SDS011;10421;49.142;9.232;2023-11-19T01:04:52;9.20;;;3.70;;
20525;SDS011;10421;49.142;9.232;2023-11-19T01:07:20;8.17;;;3.63;;
20525;SDS011;10421;49.142;9.232;2023-11-19T01:09:49;10.13;;;4.13;;
20525;SDS011;10421;49.142;9.232;2023-11-19T01:12:16;9.13;;;3.77;;
20525;SDS011;10421;49.142;9.232;2023-11-19T01:14:42;5.83;;;3.77;;
20525;SDS011;10421;49.142;9.232;2023-11-19T01:17:10;8.00;;;3.70;;
20525;SDS011;10421;49.142;9.232;2023-11-19T01:19:37;6.67;;;3.83;;
20525;SDS011;10421;49.142;9.232;2023-11-19T01:22:04;10.43;;;4.10;;
20525;SDS011;10421;49.142;9.232;2023-11-19T01:24:30;7.17;;;3.57;;
20525;SDS011;10421;49.142;9.232;2023-11-19T01:26:57;8.80;;;4.20;;
20525;SDS011;10421;49.142;9.232;2023-11-19T01:29:25;7.90;;;3.80;;
20525;SDS011;10421;49.142;9.232;2023-11-19T01:31:51;9.87;;;4.37;;
20525;SDS011;10421;49.142;9.232;2023-11-19T01:34:19;8.67;;;4.67;;
20525;SDS011;10421;49.142;9.232;2023-11-19T01:36:46;7.43;;;4.60;;
20525;SDS011;10421;49.142;9.232;2023-11-19T01:39:13;11.83;;;4.90;;
20525;SDS011;10421;49.142;9.232;2023-11-19T01:41:42;8.93;;;4.67;;
20525;SDS011;10421;49.142;9.232;2023-11-19T01:44:09;12.63;;;5.67;;
20525;SDS011;10421;49.142;9.232;2023-11-19T01:46:37;8.17;;;4.83;;
20525;SDS011;10421;49.142;9.232;2023-11-19T01:49:06;9.57;;;5.10;;
20525;SDS011;10421;49.142;9.232;2023-11-19T01:51:35;7.80;;;4.77;;
20525;SDS011;10421;49.142;9.232;2023-11-19T01:54:02;7.87;;;4.47;;
20525;SDS011;10421;49.142;9.232;2023-11-19T01:56:29;8.50;;;4.27;;
20525;SDS011;10421;49.142;9.232;2023-11-19T01:58:58;9.27;;;5.20;;
20525;SDS011;10421;49.142;9.232;2023-11-19T02:01:25;9.20;;;4.93;;
20525;SDS011;10421;49.142;9.232;2023-11-19T02:03:52;11.37;;;4.93;;
20525;SDS011;10421;49.142;9.232;2023-11-19T02:06:19;6.50;;;4.37;;
20525;SDS011;10421;49.142;9.232;2023-11-19T02:08:47;8.00;;;4.50;;
20525;SDS011;10421;49.142;9.232;2023-11-19T02:11:14;13.83;;;5.80;;
20525;SDS011;10421;49.142;9.232;2023-11-19T02:13:40;13.00;;;5.60;;
20525;SDS011;10421;49.142;9.232;2023-11-19T02:16:08;8.17;;;4.73;;
20525;SDS011;10421;49.142;9.232;2023-11-19T02:18:36;9.50;;;5.47;;
20525;SDS011;10421;49.142;9.232;2023-11-19T02:21:03;8.10;;;4.50;;
20525;SDS011;10421;49.142;9.232;2023-11-19T02:23:30;11.60;;;5.57;;
20525;SDS011;10421;49.142;9.232;2023-11-19T02:26:02;10.77;;;5.40;;
20525;SDS011;10421;49.142;9.232;2023-11-19T02:28:37;11.43;;;5.67;;
20525;SDS011;10421;49.142;9.232;2023-11-19T02:31:04;13.57;;;5.37;;
20525;SDS011;10421;49.142;9.232;2023-11-19T02:33:34;11.37;;;6.10;;
20525;SDS011;10421;49.142;9.232;2023-11-19T02:36:01;13.33;;;6.27;;
20525;SDS011;10421;49.142;9.232;2023-11-19T02:38:28;10.90;;;5.37;;
20525;SDS011;10421;49.142;9.232;2023-11-19T02:40:55;11.27;;;5.10;;
20525;SDS011;10421;49.142;9.232;2023-11-19T02:43:22;8.20;;;4.93;;
20525;SDS011;10421;49.142;9.232;2023-11-19T02:45:50;14.53;;;6.07;;
20525;SDS011;10421;49.142;9.232;2023-11-19T02:48:20;10.27;;;5.50;;
20525;SDS011;10421;49.142;9.232;2023-11-19T02:50:47;11.63;;;5.60;;
20525;SDS011;10421;49.142;9.232;2023-11-19T02:53:14;11.70;;;5.67;;
20525;SDS011;10421;49.142;9.232;2023-11-19T02:55:41;9.97;;;5.50;;
20525;SDS011;10421;49.142;9.232;2023-11-19T02:58:13;10.87;;;5.33;;
20525;SDS011;10421;49.142;9.232;2023-11-19T03:00:48;11.60;;;5.30;;
20525;SDS011;10421;49.142;9.232;2023-11-19T03:03:23;10.03;;;5.37;;
20525;SDS011;10421;49.142;9.232;2023-11-19T03:05:53;10.73;;;5.00;;
20525;SDS011;10421;49.142;9.232;2023-11-19T03:08:20;11.00;;;5.60;;
20525;SDS011;10421;49.142;9.232;2023-11-19T03:10:47;11.27;;;5.63;;
20525;SDS011;10421;49.142;9.232;2023-11-19T03:13:14;12.40;;;5.83;;
20525;SDS011;10421;49.142;9.232;2023-11-19T03:15:42;9.87;;;5.17;;
20525;SDS011;10421;49.142;9.232;2023-11-19T03:18:08;8.40;;;4.73;;
20525;SDS011;10421;49.142;9.232;2023-11-19T03:20:37;11.17;;;5.00;;
20525;SDS011;10421;49.142;9.232;2023-11-19T03:23:03;14.17;;;5.43;;
20525;SDS011;10421;49.142;9.232;2023-11-19T03:25:31;10.57;;;4.70;;
20525;SDS011;10421;49.142;9.232;2023-11-19T03:27:59;6.77;;;3.60;;
20525;SDS011;10421;49.142;9.232;2023-11-19T03:30:27;12.07;;;4.70;;
20525;SDS011;10421;49.142;9.232;2023-11-19T03:32:54;8.63;;;4.23;;
20525;SDS011;10421;49.142;9.232;2023-11-19T03:35:21;9.07;;;4.47;;
20525;SDS011;10421;49.142;9.232;2023-11-19T03:37:49;8.90;;;4.40;;
20525;SDS011;10421;49.142;9.232;2023-11-19T03:40:16;10.60;;;4.70;;
20525;SDS011;10421;49.142;9.232;2023-11-19T03:42:43;12.77;;;5.40;;
20525;SDS011;10421;49.142;9.232;2023-11-19T03:45:10;9.10;;;4.80;;
20525;SDS011;10421;49.142;9.232;2023-11-19T03:47:37;6.43;;;3.80;;
20525;SDS011;10421;49.142;9.232;2023-11-19T03:50:05;7.07;;;4.10;;
20525;SDS011;10421;49.142;9.232;2023-11-19T03:52:33;7.70;;;3.77;;
20525;SDS011;10421;49.142;9.232;2023-11-19T03:55:01;8.20;;;4.00;;
20525;SDS011;10421;49.142;9.232;2023-11-19T03:57:28;7.90;;;3.40;;
20525;SDS011;10421;49.142;9.232;2023-11-19T03:59:55;9.33;;;4.27;;
20525;SDS011;10421;49.142;9.232;2023-11-19T04:02:23;5.57;;;2.53;;
20525;SDS011;10421;49.142;9.232;2023-11-19T04:04:52;6.33;;;2.57;;
20525;SDS011;10421;49.142;9.232;2023-11-19T04:07:19;3.93;;;1.70;;
20525;SDS011;10421;49.142;9.232;2023-11-19T04:09:46;2.90;;;1.63;;
20525;SDS011;10421;49.142;9.232;2023-11-19T04:12:14;5.17;;;1.90;;
20525;SDS011;10421;49.142;9.232;2023-11-19T04:14:41;6.03;;;2.40;;
20525;SDS011;10421;49.142;9.232;2023-11-19T04:17:09;5.57;;;2.13;;
20525;SDS011;10421;49.142;9.232;2023-11-19T04:19:35;5.43;;;2.53;;
20525;SDS011;10421;49.142;9.232;2023-11-19T04:22:02;3.40;;;1.73;;
20525;SDS011;10421;49.142;9.232;2023-11-19T04:24:29;3.70;;;1.63;;
20525;SDS011;10421;49.142;9.232;2023-11-19T04:26:56;4.33;;;1.53;;
20525;SDS011;10421;49.142;9.232;2023-11-19T04:29:24;2.13;;;1.20;;
20525;SDS011;10421;49.142;9.232;2023-11-19T04:31:51;6.20;;;1.87;;
20525;SDS011;10421;49.142;9.232;2023-11-19T04:34:18;3.43;;;1.50;;
20525;SDS011;10421;49.142;9.232;2023-11-19T04:36:44;3.03;;;1.10;;
20525;SDS011;10421;49.142;9.232;2023-11-19T04:39:11;8.60;;;2.20;;
20525;SDS011;10421;49.142;9.232;2023-11-19T04:41:46;3.70;;;1.30;;
20525;SDS011;10421;49.142;9.232;2023-11-19T04:44:13;6.03;;;1.63;;
20525;SDS011;10421;49.142;9.232;2023-11-19T04:46:42;3.07;;;1.20;;
20525;SDS011;10421;49.142;9.232;2023-11-19T04:49:09;6.50;;;1.90;;
20525;SDS011;10421;49.142;9.232;2023-11-19T04:51:38;4.00;;;1.20;;
20525;SDS011;10421;49.142;9.232;2023-11-19T04:54:05;5.10;;;1.67;;
20525;SDS011;10421;49.142;9.232;2023-11-19T04:56:33;4.60;;;1.50;;
20525;SDS011;10421;49.142;9.232;2023-11-19T04:59:00;3.67;;;1.37;;
20525;SDS011;10421;49.142;9.232;2023-11-19T05:01:27;9.93;;;2.60;;
20525;SDS011;10421;49.142;9.232;2023-11-19T05:03:55;3.87;;;1.20;;
20525;SDS011;10421;49.142;9.232;2023-11-19T05:06:25;11.00;;;2.63;;
20525;SDS011;10421;49.142;9.232;2023-11-19T05:08:53;4.13;;;1.30;;
20525;SDS011;10421;49.142;9.232;2023-11-19T05:11:20;2.03;;;0.80;;
20525;SDS011;10421;49.142;9.232;2023-11-19T05:13:46;5.57;;;1.83;;
20525;SDS011;10421;49.142;9.232;2023-11-19T05:16:13;4.20;;;1.23;;
20525;SDS011;10421;49.142;9.232;2023-11-19T05:18:40;2.77;;;0.93;;
20525;SDS011;10421;49.142;9.232;2023-11-19T05:21:08;4.90;;;1.13;;
20525;SDS011;10421;49.142;9.232;2023-11-19T05:23:35;3.00;;;1.00;;
20525;SDS011;10421;49.142;9.232;2023-11-19T05:26:02;6.17;;;1.17;;
20525;SDS011;10421;49.142;9.232;2023-11-19T05:28:29;4.30;;;1.20;;
20525;SDS011;10421;49.142;9.232;2023-11-19T05:30:56;5.07;;;1.60;;
20525;SDS011;10421;49.142;9.232;2023-11-19T05:33:23;2.77;;;0.90;;
20525;SDS011;10421;49.142;9.232;2023-11-19T05:35:49;5.50;;;1.33;;
20525;SDS011;10421;49.142;9.232;2023-11-19T05:38:17;3.00;;;1.10;;
20525;SDS011;10421;49.142;9.232;2023-11-19T05:40:46;2.90;;;1.00;;
20525;SDS011;10421;49.142;9.232;2023-11-19T05:43:14;4.20;;;1.23;;
20525;SDS011;10421;49.142;9.232;2023-11-19T05:45:41;3.20;;;0.97;;
20525;SDS011;10421;49.142;9.232;2023-11-19T05:48:08;5.37;;;1.43;;
20525;SDS011;10421;49.142;9.232;2023-11-19T05:50:35;2.80;;;1.00;;
20525;SDS011;10421;49.142;9.232;2023-11-19T05:53:02;2.03;;;0.90;;
20525;SDS011;10421;49.142;9.232;2023-11-19T05:55:33;4.60;;;1.07;;
20525;SDS011;10421;49.142;9.232;2023-11-19T05:58:00;2.63;;;0.93;;
20525;SDS011;10421;49.142;9.232;2023-11-19T06:00:28;6.03;;;1.37;;
20525;SDS011;10421;49.142;9.232;2023-11-19T06:02:55;5.97;;;1.10;;
20525;SDS011;10421;49.142;9.232;2023-11-19T06:05:22;5.40;;;1.30;;
20525;SDS011;10421;49.142;9.232;2023-11-19T06:07:49;7.60;;;1.83;;
20525;SDS011;10421;49.142;9.232;2023-11-19T06:10:16;3.60;;;1.03;;
20525;SDS011;10421;49.142;9.232;2023-11-19T06:12:45;3.13;;;0.90;;
20525;SDS011;10421;49.142;9.232;2023-11-19T06:15:12;3.40;;;1.00;;
20525;SDS011;10421;49.142;9.232;2023-11-19T06:17:39;3.27;;;1.10;;
20525;SDS011;10421;49.142;9.232;2023-11-19T06:20:06;3.80;;;1.10;;
20525;SDS011;10421;49.142;9.232;2023-11-19T06:22:33;5.03;;;1.23;;
20525;SDS011;10421;49.142;9.232;2023-11-19T06:25:00;4.00;;;1.20;;
20525;SDS011;10421;49.142;9.232;2023-11-19T06:27:32;2.77;;;1.00;;
20525;SDS011;10421;49.142;9.232;2023-11-19T06:30:00;5.23;;;0.90;;
20525;SDS011;10421;49.142;9.232;2023-11-19T06:32:27;4.20;;;1.17;;
20525;SDS011;10421;49.142;9.232;2023-11-19T06:34:54;2.90;;;1.00;;
20525;SDS011;10421;49.142;9.232;2023-11-19T06:37:22;9.87;;;1.67;;
20525;SDS011;10421;49.142;9.232;2023-11-19T06:39:49;5.83;;;1.40;;
20525;SDS011;10421;49.142;9.232;2023-11-19T06:42:15;3.93;;;1.00;;
20525;SDS011;10421;49.142;9.232;2023-11-19T06:44:42;2.10;;;0.73;;
20525;SDS011;10421;49.142;9.232;2023-11-19T06:47:10;6.73;;;1.50;;
20525;SDS011;10421;49.142;9.232;2023-11-19T06:49:37;4.07;;;0.97;;
20525;SDS011;10421;49.142;9.232;2023-11-19T06:52:04;5.60;;;1.43;;
20525;SDS011;10421;49.142;9.232;2023-11-19T06:54:31;5.03;;;1.30;;
20525;SDS011;10421;49.142;9.232;2023-11-19T06:56:58;5.43;;;0.97;;
20525;SDS011;10421;49.142;9.232;2023-11-19T06:59:24;4.20;;;1.20;;
20525;SDS011;10421;49.142;9.232;2023-11-19T07:01:51;4.53;;;1.27;;
20525;SDS011;10421;49.142;9.232;2023-11-19T07:04:19;2.97;;;0.87;;
20525;SDS011;10421;49.142;9.232;2023-11-19T07:06:46;4.47;;;1.23;;
20525;SDS011;10421;49.142;9.232;2023-11-19T07:09:13;5.90;;;1.53;;
20525;SDS011;10421;49.142;9.232;2023-11-19T07:11:41;3.17;;;1.07;;
20525;SDS011;10421;49.142;9.232;2023-11-19T07:14:09;5.17;;;1.40;;
20525;SDS011;10421;49.142;9.232;2023-11-19T07:16:36;1.50;;;0.70;;
20525;SDS011;10421;49.142;9.232;2023-11-19T07:19:03;8.27;;;1.63;;
20525;SDS011;10421;49.142;9.232;2023-11-19T07:21:32;4.63;;;1.27;;
20525;SDS011;10421;49.142;9.232;2023-11-19T07:23:59;1.70;;;0.77;;
20525;SDS011;10421;49.142;9.232;2023-11-19T07:26:26;6.90;;;1.80;;
20525;SDS011;10421;49.142;9.232;2023-11-19T07:28:53;3.73;;;1.10;;
20525;SDS011;10421;49.142;9.232;2023-11-19T07:31:20;5.10;;;1.33;;
20525;SDS011;10421;49.142;9.232;2023-11-19T07:33:47;5.60;;;1.40;;
20525;SDS011;10421;49.142;9.232;2023-11-19T07:36:14;7.50;;;1.67;;
20525;SDS011;10421;49.142;9.232;2023-11-19T07:38:42;2.40;;;0.87;;
20525;SDS011;10421;49.142;9.232;2023-11-19T07:41:09;6.17;;;1.57;;
20525;SDS011;10421;49.142;9.232;2023-11-19T07:43:38;4.90;;;1.40;;
20525;SDS011;10421;49.142;9.232;2023-11-19T07:46:05;2.97;;;1.13;;
20525;SDS011;10421;49.142;9.232;2023-11-19T07:48:38;2.90;;;0.90;;
20525;SDS011;10421;49.142;9.232;2023-11-19T07:51:04;2.20;;;0.83;;
20525;SDS011;10421;49.142;9.232;2023-11-19T07:53:31;4.30;;;1.43;;
20525;SDS011;10421;49.142;9.232;2023-11-19T07:56:00;5.13;;;1.13;;
20525;SDS011;10421;49.142;9.232;2023-11-19T07:58:27;3.40;;;1.20;;
20525;SDS011;10421;49.142;9.232;2023-11-19T08:00:53;4.33;;;1.40;;
20525;SDS011;10421;49.142;9.232;2023-11-19T08:03:20;4.63;;;1.27;;
20525;SDS011;10421;49.142;9.232;2023-11-19T08:05:48;5.70;;;1.57;;
20525;SDS011;10421;49.142;9.232;2023-11-19T08:08:15;7.33;;;1.83;;
20525;SDS011;10421;49.142;9.232;2023-11-19T08:10:42;2.93;;;0.90;;
20525;SDS011;10421;49.142;9.232;2023-11-19T08:13:10;5.70;;;1.57;;
20525;SDS011;10421;49.142;9.232;2023-11-19T08:15:37;3.70;;;1.00;;
20525;SDS011;10421;49.142;9.232;2023-11-19T08:18:05;4.10;;;1.03;;
20525;SDS011;10421;49.142;9.232;2023-11-19T08:20:32;3.73;;;1.00;;
20525;SDS011;10421;49.142;9.232;2023-11-19T08:22:58;3.90;;;1.13;;
20525;SDS011;10421;49.142;9.232;2023-11-19T08:25:25;3.07;;;1.17;;
20525;SDS011;10421;49.142;9.232;2023-11-19T08:27:53;4.07;;;1.17;;
20525;SDS011;10421;49.142;9.232;2023-11-19T08:30:22;4.97;;;1.40;;
20525;SDS011;10421;49.142;9.232;2023-11-19T08:32:48;5.13;;;1.53;;
20525;SDS011;10421;49.142;9.232;2023-11-19T08:35:15;6.30;;;1.70;;
20525;SDS011;10421;49.142;9.232;2023-11-19T08:37:42;4.90;;;1.30;;
20525;SDS011;10421;49.142;9.232;2023-11-19T08:40:11;8.17;;;2.00;;
20525;SDS011;10421;49.142;9.232;2023-11-19T08:42:39;4.00;;;1.37;;
20525;SDS011;10421;49.142;9.232;2023-11-19T08:45:06;9.10;;;2.17;;
20525;SDS011;10421;49.142;9.232;2023-11-19T08:47:37;9.50;;;2.60;;
20525;SDS011;10421;49.142;9.232;2023-11-19T08:50:05;3.57;;;1.30;;
20525;SDS011;10421;49.142;9.232;2023-11-19T08:52:33;4.97;;;1.37;;
20525;SDS011;10421;49.142;9.232;2023-11-19T08:55:00;4.17;;;1.57;;
20525;SDS011;10421;49.142;9.232;2023-11-19T08:57:26;9.30;;;2.27;;
20525;SDS011;10421;49.142;9.232;2023-11-19T08:59:53;4.60;;;1.23;;
20525;SDS011;10421;49.142;9.232;2023-11-19T09:02:20;4.97;;;1.60;;
20525;SDS011;10421;49.142;9.232;2023-11-19T09:04:48;9.40;;;1.87;;
20525;SDS011;10421;49.142;9.232;2023-11-19T09:07:14;7.40;;;1.93;;
20525;SDS011;10421;49.142;9.232;2023-11-19T09:09:41;4.83;;;1.40;;
20525;SDS011;10421;49.142;9.232;2023-11-19T09:12:08;5.20;;;1.50;;
20525;SDS011;10421;49.142;9.232;2023-11-19T09:14:34;8.43;;;2.27;;
20525;SDS011;10421;49.142;9.232;2023-11-19T09:17:01;2.73;;;0.90;;
20525;SDS011;10421;49.142;9.232;2023-11-19T09:19:28;4.87;;;1.33;;
20525;SDS011;10421;49.142;9.232;2023-11-19T09:21:56;6.33;;;1.57;;
20525;SDS011;10421;49.142;9.232;2023-11-19T09:24:23;5.33;;;1.47;;
20525;SDS011;10421;49.142;9.232;2023-11-19T09:26:49;5.70;;;1.10;;
20525;SDS011;10421;49.142;9.232;2023-11-19T09:29:16;4.17;;;1.23;;
20525;SDS011;10421;49.142;9.232;2023-11-19T09:31:43;5.10;;;1.43;;
20525;SDS011;10421;49.142;9.232;2023-11-19T09:34:10;3.83;;;1.20;;
20525;SDS011;10421;49.142;9.232;2023-11-19T09:36:36;2.40;;;0.80;;
20525;SDS011;10421;49.142;9.232;2023-11-19T09:39:05;9.83;;;1.87;;
20525;SDS011;10421;49.142;9.232;2023-11-19T09:41:33;5.67;;;1.60;;
20525;SDS011;10421;49.142;9.232;2023-11-19T09:44:00;3.77;;;0.83;;
20525;SDS011;10421;49.142;9.232;2023-11-19T09:46:26;8.27;;;1.93;;
20525;SDS011;10421;49.142;9.232;2023-11-19T09:48:54;5.20;;;1.10;;
20525;SDS011;10421;49.142;9.232;2023-11-19T09:51:24;3.57;;;1.20;;
20525;SDS011;10421;49.142;9.232;2023-11-19T09:53:51;7.80;;;1.63;;
20525;SDS011;10421;49.142;9.232;2023-11-19T09:56:19;7.23;;;1.97;;
20525;SDS011;10421;49.142;9.232;2023-11-19T09:58:47;5.57;;;1.40;;
20525;SDS011;10421;49.142;9.232;2023-11-19T10:01:14;6.13;;;1.50;;
20525;SDS011;10421;49.142;9.232;2023-11-19T10:03:40;6.03;;;1.67;;
20525;SDS011;10421;49.142;9.232;2023-11-19T10:06:09;3.57;;;0.83;;
20525;SDS011;10421;49.142;9.232;2023-11-19T10:08:36;5.27;;;1.47;;
20525;SDS011;10421;49.142;9.232;2023-11-19T10:11:04;5.80;;;1.23;;
20525;SDS011;10421;49.142;9.232;2023-11-19T10:13:33;3.43;;;1.40;;
20525;SDS011;10421;49.142;9.232;2023-11-19T10:16:03;4.40;;;1.20;;
20525;SDS011;10421;49.142;9.232;2023-11-19T10:18:33;6.50;;;2.10;;
20525;SDS011;10421;49.142;9.232;2023-11-19T10:21:03;4.53;;;1.13;;
20525;SDS011;10421;49.142;9.232;2023-11-19T10:23:30;5.17;;;1.17;;
20525;SDS011;10421;49.142;9.232;2023-11-19T10:26:02;3.97;;;1.07;;
20525;SDS011;10421;49.142;9.232;2023-11-19T10:28:39;2.13;;;0.80;;
20525;SDS011;10421;49.142;9.232;2023-11-19T10:31:08;3.17;;;1.13;;
20525;SDS011;10421;49.142;9.232;2023-11-19T10:33:35;4.90;;;1.33;;
20525;SDS011;10421;49.142;9.232;2023-11-19T10:36:01;10.53;;;1.40;;
20525;SDS011;10421;49.142;9.232;2023-11-19T10:38:28;4.73;;;1.13;;
20525;SDS011;10421;49.142;9.232;2023-11-19T10:40:55;4.93;;;1.00;;
20525;SDS011;10421;49.142;9.232;2023-11-19T10:43:23;7.63;;;1.73;;
20525;SDS011;10421;49.142;9.232;2023-11-19T10:45:51;3.60;;;1.20;;
20525;SDS011;10421;49.142;9.232;2023-11-19T10:48:18;2.50;;;1.10;;
20525;SDS011;10421;49.142;9.232;2023-11-19T10:50:46;13.60;;;2.17;;
20525;SDS011;10421;49.142;9.232;2023-11-19T10:53:19;8.77;;;1.70;;
20525;SDS011;10421;49.142;9.232;2023-11-19T10:55:51;4.63;;;1.37;;
20525;SDS011;10421;49.142;9.232;2023-11-19T10:58:19;6.00;;;1.23;;
20525;SDS011;10421;49.142;9.232;2023-11-19T11:00:47;9.20;;;2.00;;
20525;SDS011;10421;49.142;9.232;2023-11-19T11:03:20;4.73;;;1.50;;
20525;SDS011;10421;49.142;9.232;2023-11-19T11:05:48;3.63;;;1.00;;
20525;SDS011;10421;49.142;9.232;2023-11-19T11:08:16;6.73;;;1.70;;
20525;SDS011;10421;49.142;9.232;2023-11-19T11:10:44;4.53;;;1.20;;
20525;SDS011;10421;49.142;9.232;2023-11-19T11:13:14;6.73;;;1.70;;
20525;SDS011;10421;49.142;9.232;2023-11-19T11:15:41;6.50;;;1.20;;
20525;SDS011;10421;49.142;9.232;2023-11-19T11:18:08;3.40;;;1.17;;
20525;SDS011;10421;49.142;9.232;2023-11-19T11:20:36;3.03;;;0.80;;
20525;SDS011;10421;49.142;9.232;2023-11-19T11:23:13;5.70;;;1.77;;
20525;SDS011;10421;49.142;9.232;2023-11-19T11:25:58;2.63;;;1.17;;
20525;SDS011;10421;49.142;9.232;2023-11-19T11:28:37;2.40;;;0.80;;
20525;SDS011;10421;49.142;9.232;2023-11-19T11:31:12;2.20;;;0.90;;
20525;SDS011;10421;49.142;9.232;2023-11-19T11:33:59;3.63;;;1.00;;
20525;SDS011;10421;49.142;9.232;2023-11-19T11:36:44;3.90;;;1.07;;
20525;SDS011;10421;49.142;9.232;2023-11-19T11:39:17;7.57;;;1.93;;
20525;SDS011;10421;49.142;9.232;2023-11-19T11:41:55;4.30;;;1.10;;
20525;SDS011;10421;49.142;9.232;2023-11-19T11:45:01;4.83;;;1.13;;
20525;SDS011;10421;49.142;9.232;2023-11-19T11:50:50;4.40;;;1.30;;
20525;SDS011;10421;49.142;9.232;2023-11-19T11:53:21;6.20;;;1.10;;
20525;SDS011;10421;49.142;9.232;2023-11-19T11:55:53;2.47;;;1.00;;
20525;SDS011;10421;49.142;9.232;2023-11-19T11:58:25;5.97;;;1.60;;
20525;SDS011;10421;49.142;9.232;2023-11-19T12:00:53;3.60;;;0.90;;
20525;SDS011;10421;49.142;9.232;2023-11-19T12:03:20;8.43;;;1.90;;
20525;SDS011;10421;49.142;9.232;2023-11-19T12:05:47;7.20;;;1.83;;
20525;SDS011;10421;49.142;9.232;2023-11-19T12:08:16;7.27;;;1.77;;
20525;SDS011;10421;49.142;9.232;2023-11-19T12:10:47;4.83;;;1.37;;
20525;SDS011;10421;49.142;9.232;2023-11-19T12:13:15;6.43;;;1.67;;
20525;SDS011;10421;49.142;9.232;2023-11-19T12:18:36;7.13;;;1.50;;
20525;SDS011;10421;49.142;9.232;2023-11-19T12:21:05;5.80;;;1.60;;
20525;SDS011;10421;49.142;9.232;2023-11-19T12:23:34;7.10;;;1.83;;
20525;SDS011;10421;49.142;9.232;2023-11-19T12:26:03;10.40;;;2.40;;
20525;SDS011;10421;49.142;9.232;2023-11-19T12:28:30;11.37;;;2.30;;
20525;SDS011;10421;49.142;9.232;2023-11-19T12:31:07;8.47;;;1.77;;
20525;SDS011;10421;49.142;9.232;2023-11-19T12:33:35;11.50;;;2.30;;
20525;SDS011;10421;49.142;9.232;2023-11-19T12:36:03;15.43;;;2.70;;
20525;SDS011;10421;49.142;9.232;2023-11-19T12:38:31;6.80;;;1.40;;
20525;SDS011;10421;49.142;9.232;2023-11-19T12:41:05;7.80;;;1.43;;
20525;SDS011;10421;49.142;9.232;2023-11-19T12:43:33;10.47;;;2.00;;
20525;SDS011;10421;49.142;9.232;2023-11-19T12:46:01;13.77;;;2.13;;
20525;SDS011;10421;49.142;9.232;2023-11-19T12:48:28;7.13;;;1.50;;
20525;SDS011;10421;49.142;9.232;2023-11-19T12:50:55;17.73;;;3.80;;
20525;SDS011;10421;49.142;9.232;2023-11-19T12:53:23;11.37;;;2.30;;
20525;SDS011;10421;49.142;9.232;2023-11-19T12:55:52;11.53;;;1.90;;
20525;SDS011;10421;49.142;9.232;2023-11-19T12:58:30;10.87;;;2.10;;
20525;SDS011;10421;49.142;9.232;2023-11-19T13:01:02;5.30;;;1.33;;
20525;SDS011;10421;49.142;9.232;2023-11-19T13:03:30;10.13;;;2.20;;
20525;SDS011;10421;49.142;9.232;2023-11-19T13:06:01;9.00;;;2.00;;
20525;SDS011;10421;49.142;9.232;2023-11-19T13:08:35;10.67;;;2.00;;
20525;SDS011;10421;49.142;9.232;2023-11-19T13:11:04;8.97;;;1.73;;
20525;SDS011;10421;49.142;9.232;2023-11-19T13:13:32;14.23;;;2.70;;
20525;SDS011;10421;49.142;9.232;2023-11-19T13:16:03;11.17;;;1.73;;
20525;SDS011;10421;49.142;9.232;2023-11-19T13:18:31;7.90;;;1.57;;
20525;SDS011;10421;49.142;9.232;2023-11-19T13:20:58;7.73;;;1.40;;
20525;SDS011;10421;49.142;9.232;2023-11-19T13:23:24;13.43;;;2.20;;
20525;SDS011;10421;49.142;9.232;2023-11-19T13:25:51;6.93;;;1.53;;
20525;SDS011;10421;49.142;9.232;2023-11-19T13:28:18;8.03;;;1.63;;
20525;SDS011;10421;49.142;9.232;2023-11-19T13:30:46;4.83;;;1.20;;
20525;SDS011;10421;49.142;9.232;2023-11-19T13:33:13;4.97;;;1.27;;
20525;SDS011;10421;49.142;9.232;2023-11-19T13:35:40;20.70;;;3.17;;
20525;SDS011;10421;49.142;9.232;2023-11-19T13:38:06;4.93;;;1.10;;
20525;SDS011;10421;49.142;9.232;2023-11-19T13:40:34;7.20;;;1.73;;
20525;SDS011;10421;49.142;9.232;2023-11-19T13:43:01;6.17;;;1.37;;
20525;SDS011;10421;49.142;9.232;2023-11-19T13:45:28;6.93;;;1.40;;
20525;SDS011;10421;49.142;9.232;2023-11-19T13:47:56;6.10;;;1.70;;
20525;SDS011;10421;49.142;9.232;2023-11-19T13:50:22;15.47;;;2.70;;
20525;SDS011;10421;49.142;9.232;2023-11-19T13:52:49;6.67;;;1.47;;
20525;SDS011;10421;49.142;9.232;2023-11-19T13:55:16;10.40;;;2.03;;
20525;SDS011;10421;49.142;9.232;2023-11-19T13:57:43;6.97;;;1.60;;
20525;SDS011;10421;49.142;9.232;2023-11-19T14:00:10;8.60;;;1.73;;
20525;SDS011;10421;49.142;9.232;2023-11-19T14:02:38;10.30;;;2.00;;
20525;SDS011;10421;49.142;9.232;2023-11-19T14:05:07;10.57;;;1.93;;
20525;SDS011;10421;49.142;9.232;2023-11-19T14:07:34;12.97;;;2.47;;
20525;SDS011;10421;49.142;9.232;2023-11-19T14:10:01;8.17;;;1.50;;
20525;SDS011;10421;49.142;9.232;2023-11-19T14:12:28;7.67;;;1.73;;
20525;SDS011;10421;49.142;9.232;2023-11-19T14:14:54;17.80;;;2.83;;
20525;SDS011;10421;49.142;9.232;2023-11-19T14:17:21;8.43;;;1.73;;
20525;SDS011;10421;49.142;9.232;2023-11-19T14:19:50;10.80;;;1.70;;
20525;SDS011;10421;49.142;9.232;2023-11-19T14:22:18;14.03;;;2.07;;
20525;SDS011;10421;49.142;9.232;2023-11-19T14:24:45;8.77;;;1.90;;
20525;SDS011;10421;49.142;9.232;2023-11-19T14:27:11;7.27;;;1.70;;
20525;SDS011;10421;49.142;9.232;2023-11-19T14:29:38;10.80;;;2.20;;
20525;SDS011;10421;49.142;9.232;2023-11-19T14:32:05;7.40;;;1.80;;
20525;SDS011;10421;49.142;9.232;2023-11-19T14:34:32;9.33;;;1.93;;
20525;SDS011;10421;49.142;9.232;2023-11-19T14:36:59;15.80;;;2.87;;
20525;SDS011;10421;49.142;9.232;2023-11-19T14:39:27;11.23;;;2.27;;
20525;SDS011;10421;49.142;9.232;2023-11-19T14:41:56;4.73;;;1.20;;
20525;SDS011;10421;49.142;9.232;2023-11-19T14:44:25;8.97;;;2.13;;
20525;SDS011;10421;49.142;9.232;2023-11-19T14:46:54;6.13;;;1.67;;
20525;SDS011;10421;49.142;9.232;2023-11-19T14:49:20;10.10;;;2.03;;
20525;SDS011;10421;49.142;9.232;2023-11-19T14:51:48;9.00;;;2.07;;
20525;SDS011;10421;49.142;9.232;2023-11-19T14:54:15;6.37;;;1.53;;
20525;SDS011;10421;49.142;9.232;2023-11-19T14:56:43;23.53;;;3.83;;